sensor_id;sensor_type;location;lat;lon;timestamp;P1;durP1;ratioP1;P2;durP2;ratioP2
36253;SDS011;22291;52.250;21.228;2023-02-28T00:01:33;67.95;;;29.85;;
36253;SDS011;22291;52.250;21.228;2023-02-28T00:04:00;81.95;;;33.83;;
36253;SDS011;22291;52.250;21.228;2023-02-28T00:06:27;90.55;;;33.20;;
36253;SDS011;22291;52.250;21.228;2023-02-28T00:08:54;86.47;;;31.50;;
36253;SDS011;22291;52.250;21.228;2023-02-28T00:11:20;70.78;;;27.00;;
36253;SDS011;22291;52.250;21.228;2023-02-28T00:13:47;83.95;;;32.20;;
36253;SDS011;22291;52.250;21.228;2023-02-28T00:16:18;69.25;;;29.70;;
36253;SDS011;22291;52.250;21.228;2023-02-28T00:18:49;59.70;;;25.20;;
36253;SDS011;22291;52.250;21.228;2023-02-28T00:21:17;58.08;;;23.55;;
36253;SDS011;22291;52.250;21.228;2023-02-28T00:23:46;41.83;;;18.30;;
36253;SDS011;22291;52.250;21.228;2023-02-28T00:26:13;48.30;;;23.50;;
36253;SDS011;22291;52.250;21.228;2023-02-28T00:28:41;50.15;;;20.35;;
36253;SDS011;22291;52.250;21.228;2023-02-28T00:31:07;52.17;;;21.25;;
36253;SDS011;22291;52.250;21.228;2023-02-28T00:33:35;49.35;;;22.52;;
36253;SDS011;22291;52.250;21.228;2023-02-28T00:36:06;49.42;;;21.87;;
36253;SDS011;22291;52.250;21.228;2023-02-28T00:38:37;45.48;;;19.40;;
36253;SDS011;22291;52.250;21.228;2023-02-28T00:41:05;45.80;;;19.17;;
36253;SDS011;22291;52.250;21.228;2023-02-28T00:43:34;52.53;;;20.23;;
36253;SDS011;22291;52.250;21.228;2023-02-28T00:46:05;49.65;;;21.65;;
36253;SDS011;22291;52.250;21.228;2023-02-28T00:48:32;51.50;;;21.87;;
36253;SDS011;22291;52.250;21.228;2023-02-28T00:51:01;44.98;;;20.62;;
36253;SDS011;22291;52.250;21.228;2023-02-28T00:53:29;53.52;;;23.00;;
36253;SDS011;22291;52.250;21.228;2023-02-28T00:55:58;57.35;;;24.25;;
36253;SDS011;22291;52.250;21.228;2023-02-28T00:58:26;53.05;;;21.23;;
36253;SDS011;22291;52.250;21.228;2023-02-28T01:00:52;56.92;;;22.20;;
36253;SDS011;22291;52.250;21.228;2023-02-28T01:03:20;58.42;;;22.15;;
36253;SDS011;22291;52.250;21.228;2023-02-28T01:05:48;67.65;;;24.20;;
36253;SDS011;22291;52.250;21.228;2023-02-28T01:08:14;56.53;;;21.77;;
36253;SDS011;22291;52.250;21.228;2023-02-28T01:10:41;59.85;;;23.42;;
36253;SDS011;22291;52.250;21.228;2023-02-28T01:13:10;56.05;;;22.65;;
36253;SDS011;22291;52.250;21.228;2023-02-28T01:15:38;59.57;;;24.63;;
36253;SDS011;22291;52.250;21.228;2023-02-28T01:18:10;51.88;;;23.83;;
36253;SDS011;22291;52.250;21.228;2023-02-28T01:20:36;55.45;;;24.40;;
36253;SDS011;22291;52.250;21.228;2023-02-28T01:23:05;38.13;;;17.15;;
36253;SDS011;22291;52.250;21.228;2023-02-28T01:25:33;59.67;;;24.07;;
36253;SDS011;22291;52.250;21.228;2023-02-28T01:28:02;64.62;;;25.15;;
36253;SDS011;22291;52.250;21.228;2023-02-28T01:30:30;67.78;;;26.20;;
36253;SDS011;22291;52.250;21.228;2023-02-28T01:32:57;59.30;;;25.35;;
36253;SDS011;22291;52.250;21.228;2023-02-28T01:35:26;66.93;;;23.83;;
36253;SDS011;22291;52.250;21.228;2023-02-28T01:37:53;61.65;;;30.32;;
36253;SDS011;22291;52.250;21.228;2023-02-28T01:40:20;60.73;;;27.25;;
36253;SDS011;22291;52.250;21.228;2023-02-28T01:42:46;67.95;;;27.45;;
36253;SDS011;22291;52.250;21.228;2023-02-28T01:45:26;69.15;;;29.00;;
36253;SDS011;22291;52.250;21.228;2023-02-28T01:47:57;65.00;;;28.75;;
36253;SDS011;22291;52.250;21.228;2023-02-28T01:50:32;63.87;;;27.62;;
36253;SDS011;22291;52.250;21.228;2023-02-28T01:53:04;59.55;;;26.02;;
36253;SDS011;22291;52.250;21.228;2023-02-28T01:55:33;55.23;;;26.35;;
36253;SDS011;22291;52.250;21.228;2023-02-28T01:58:02;58.60;;;28.57;;
36253;SDS011;22291;52.250;21.228;2023-02-28T02:00:32;54.08;;;25.70;;
36253;SDS011;22291;52.250;21.228;2023-02-28T02:03:05;53.30;;;27.10;;
36253;SDS011;22291;52.250;21.228;2023-02-28T02:05:35;51.63;;;25.62;;
36253;SDS011;22291;52.250;21.228;2023-02-28T02:08:05;58.65;;;26.62;;
36253;SDS011;22291;52.250;21.228;2023-02-28T02:10:40;55.70;;;25.88;;
36253;SDS011;22291;52.250;21.228;2023-02-28T02:25:28;54.63;;;25.15;;
36253;SDS011;22291;52.250;21.228;2023-02-28T02:28:25;55.63;;;25.68;;
36253;SDS011;22291;52.250;21.228;2023-02-28T02:42:33;58.65;;;26.62;;
36253;SDS011;22291;52.250;21.228;2023-02-28T02:45:16;56.00;;;24.63;;
36253;SDS011;22291;52.250;21.228;2023-02-28T02:47:49;50.83;;;26.50;;
36253;SDS011;22291;52.250;21.228;2023-02-28T02:50:25;56.65;;;26.97;;
36253;SDS011;22291;52.250;21.228;2023-02-28T02:52:56;57.48;;;27.45;;
36253;SDS011;22291;52.250;21.228;2023-02-28T02:55:26;52.43;;;26.33;;
36253;SDS011;22291;52.250;21.228;2023-02-28T02:57:57;56.92;;;27.02;;
36253;SDS011;22291;52.250;21.228;2023-02-28T03:00:30;58.50;;;26.15;;
36253;SDS011;22291;52.250;21.228;2023-02-28T03:02:59;54.63;;;27.05;;
36253;SDS011;22291;52.250;21.228;2023-02-28T03:08:04;51.55;;;25.25;;
36253;SDS011;22291;52.250;21.228;2023-02-28T03:10:33;56.85;;;25.72;;
36253;SDS011;22291;52.250;21.228;2023-02-28T03:30:50;51.37;;;25.17;;
36253;SDS011;22291;52.250;21.228;2023-02-28T03:33:26;58.58;;;27.25;;
36253;SDS011;22291;52.250;21.228;2023-02-28T03:35:57;55.33;;;25.95;;
36253;SDS011;22291;52.250;21.228;2023-02-28T03:39:27;50.85;;;24.77;;
36253;SDS011;22291;52.250;21.228;2023-02-28T03:41:27;56.48;;;26.00;;
36253;SDS011;22291;52.250;21.228;2023-02-28T03:43:54;54.23;;;25.77;;
36253;SDS011;22291;52.250;21.228;2023-02-28T03:46:25;55.05;;;25.15;;
36253;SDS011;22291;52.250;21.228;2023-02-28T03:48:56;57.17;;;26.93;;
36253;SDS011;22291;52.250;21.228;2023-02-28T03:51:29;65.37;;;27.70;;
36253;SDS011;22291;52.250;21.228;2023-02-28T03:54:01;57.98;;;27.58;;
36253;SDS011;22291;52.250;21.228;2023-02-28T03:56:45;61.23;;;26.27;;
36253;SDS011;22291;52.250;21.228;2023-02-28T03:59:25;56.63;;;24.77;;
36253;SDS011;22291;52.250;21.228;2023-02-28T04:01:54;49.05;;;24.15;;
36253;SDS011;22291;52.250;21.228;2023-02-28T04:04:23;46.35;;;23.40;;
36253;SDS011;22291;52.250;21.228;2023-02-28T04:06:51;44.80;;;23.15;;
36253;SDS011;22291;52.250;21.228;2023-02-28T04:09:19;49.73;;;24.07;;
36253;SDS011;22291;52.250;21.228;2023-02-28T04:11:49;47.98;;;21.85;;
36253;SDS011;22291;52.250;21.228;2023-02-28T04:14:18;51.95;;;23.15;;
36253;SDS011;22291;52.250;21.228;2023-02-28T04:16:44;55.15;;;23.45;;
36253;SDS011;22291;52.250;21.228;2023-02-28T04:19:11;54.67;;;23.52;;
36253;SDS011;22291;52.250;21.228;2023-02-28T04:24:12;50.30;;;22.27;;
36253;SDS011;22291;52.250;21.228;2023-02-28T04:26:42;44.83;;;23.42;;
36253;SDS011;22291;52.250;21.228;2023-02-28T04:29:12;54.05;;;25.90;;
36253;SDS011;22291;52.250;21.228;2023-02-28T04:31:45;54.55;;;24.87;;
36253;SDS011;22291;52.250;21.228;2023-02-28T04:34:12;58.70;;;25.68;;
36253;SDS011;22291;52.250;21.228;2023-02-28T04:36:38;56.28;;;23.95;;
36253;SDS011;22291;52.250;21.228;2023-02-28T04:39:05;50.48;;;23.73;;
36253;SDS011;22291;52.250;21.228;2023-02-28T04:41:32;52.30;;;24.30;;
36253;SDS011;22291;52.250;21.228;2023-02-28T04:43:58;60.92;;;25.75;;
36253;SDS011;22291;52.250;21.228;2023-02-28T04:46:24;46.08;;;23.15;;
36253;SDS011;22291;52.250;21.228;2023-02-28T04:48:50;52.67;;;24.00;;
36253;SDS011;22291;52.250;21.228;2023-02-28T04:51:17;50.85;;;23.95;;
36253;SDS011;22291;52.250;21.228;2023-02-28T04:53:45;37.37;;;18.37;;
36253;SDS011;22291;52.250;21.228;2023-02-28T04:56:13;51.73;;;23.73;;
36253;SDS011;22291;52.250;21.228;2023-02-28T04:58:43;48.92;;;22.75;;
36253;SDS011;22291;52.250;21.228;2023-02-28T05:01:16;51.13;;;22.93;;
36253;SDS011;22291;52.250;21.228;2023-02-28T05:03:54;47.27;;;22.93;;
36253;SDS011;22291;52.250;21.228;2023-02-28T05:06:24;55.25;;;24.67;;
36253;SDS011;22291;52.250;21.228;2023-02-28T05:08:53;50.83;;;24.60;;
36253;SDS011;22291;52.250;21.228;2023-02-28T05:11:21;57.58;;;26.10;;
36253;SDS011;22291;52.250;21.228;2023-02-28T05:13:52;59.95;;;26.60;;
36253;SDS011;22291;52.250;21.228;2023-02-28T05:16:19;56.53;;;26.82;;
36253;SDS011;22291;52.250;21.228;2023-02-28T05:18:47;57.70;;;26.17;;
36253;SDS011;22291;52.250;21.228;2023-02-28T05:21:27;60.92;;;26.35;;
36253;SDS011;22291;52.250;21.228;2023-02-28T05:23:58;59.60;;;25.75;;
36253;SDS011;22291;52.250;21.228;2023-02-28T05:26:31;57.13;;;26.10;;
36253;SDS011;22291;52.250;21.228;2023-02-28T05:29:07;59.88;;;26.82;;
36253;SDS011;22291;52.250;21.228;2023-02-28T05:31:36;63.75;;;29.35;;
36253;SDS011;22291;52.250;21.228;2023-02-28T05:34:03;62.78;;;27.80;;
36253;SDS011;22291;52.250;21.228;2023-02-28T05:36:29;64.58;;;27.67;;
36253;SDS011;22291;52.250;21.228;2023-02-28T05:38:56;58.92;;;27.48;;
36253;SDS011;22291;52.250;21.228;2023-02-28T05:41:23;52.40;;;26.57;;
36253;SDS011;22291;52.250;21.228;2023-02-28T05:43:49;62.08;;;28.02;;
36253;SDS011;22291;52.250;21.228;2023-02-28T05:46:15;64.77;;;29.65;;
36253;SDS011;22291;52.250;21.228;2023-02-28T05:48:45;61.33;;;27.02;;
36253;SDS011;22291;52.250;21.228;2023-02-28T05:51:13;54.23;;;27.62;;
36253;SDS011;22291;52.250;21.228;2023-02-28T05:53:40;56.60;;;27.75;;
36253;SDS011;22291;52.250;21.228;2023-02-28T05:56:06;57.70;;;26.05;;
36253;SDS011;22291;52.250;21.228;2023-02-28T05:58:33;59.18;;;27.27;;
36253;SDS011;22291;52.250;21.228;2023-02-28T06:01:00;60.95;;;28.47;;
36253;SDS011;22291;52.250;21.228;2023-02-28T06:03:46;58.83;;;27.35;;
36253;SDS011;22291;52.250;21.228;2023-02-28T06:06:13;63.80;;;29.92;;
36253;SDS011;22291;52.250;21.228;2023-02-28T06:08:39;63.60;;;29.90;;
36253;SDS011;22291;52.250;21.228;2023-02-28T06:11:05;69.90;;;30.48;;
36253;SDS011;22291;52.250;21.228;2023-02-28T06:13:33;69.95;;;30.95;;
36253;SDS011;22291;52.250;21.228;2023-02-28T06:16:03;66.75;;;30.62;;
36253;SDS011;22291;52.250;21.228;2023-02-28T06:18:31;71.17;;;32.20;;
36253;SDS011;22291;52.250;21.228;2023-02-28T06:20:57;66.15;;;30.32;;
36253;SDS011;22291;52.250;21.228;2023-02-28T06:23:24;67.30;;;29.95;;
36253;SDS011;22291;52.250;21.228;2023-02-28T06:25:50;62.93;;;30.92;;
36253;SDS011;22291;52.250;21.228;2023-02-28T06:28:18;69.92;;;31.30;;
36253;SDS011;22291;52.250;21.228;2023-02-28T06:30:45;64.70;;;29.12;;
36253;SDS011;22291;52.250;21.228;2023-02-28T06:33:11;61.40;;;28.60;;
36253;SDS011;22291;52.250;21.228;2023-02-28T06:35:37;54.67;;;26.42;;
36253;SDS011;22291;52.250;21.228;2023-02-28T06:38:03;56.18;;;27.70;;
36253;SDS011;22291;52.250;21.228;2023-02-28T06:40:30;62.62;;;30.32;;
36253;SDS011;22291;52.250;21.228;2023-02-28T06:42:58;61.98;;;28.55;;
36253;SDS011;22291;52.250;21.228;2023-02-28T06:45:24;62.80;;;29.20;;
36253;SDS011;22291;52.250;21.228;2023-02-28T06:47:52;57.50;;;29.67;;
36253;SDS011;22291;52.250;21.228;2023-02-28T06:50:18;60.10;;;29.12;;
36253;SDS011;22291;52.250;21.228;2023-02-28T06:52:46;64.80;;;31.15;;
36253;SDS011;22291;52.250;21.228;2023-02-28T06:55:13;62.65;;;30.88;;
36253;SDS011;22291;52.250;21.228;2023-02-28T06:57:39;67.27;;;33.83;;
36253;SDS011;22291;52.250;21.228;2023-02-28T07:00:07;69.82;;;34.10;;
36253;SDS011;22291;52.250;21.228;2023-02-28T07:02:35;67.72;;;33.85;;
36253;SDS011;22291;52.250;21.228;2023-02-28T07:05:03;65.25;;;33.20;;
36253;SDS011;22291;52.250;21.228;2023-02-28T07:07:31;63.57;;;34.80;;
36253;SDS011;22291;52.250;21.228;2023-02-28T07:09:59;62.60;;;33.73;;
36253;SDS011;22291;52.250;21.228;2023-02-28T07:12:25;65.78;;;34.80;;
36253;SDS011;22291;52.250;21.228;2023-02-28T07:14:52;58.50;;;31.75;;
36253;SDS011;22291;52.250;21.228;2023-02-28T07:17:20;61.53;;;32.43;;
36253;SDS011;22291;52.250;21.228;2023-02-28T07:19:46;64.55;;;31.02;;
36253;SDS011;22291;52.250;21.228;2023-02-28T07:22:12;46.65;;;25.50;;
36253;SDS011;22291;52.250;21.228;2023-02-28T07:24:39;53.98;;;27.52;;
36253;SDS011;22291;52.250;21.228;2023-02-28T07:27:05;50.85;;;26.12;;
36253;SDS011;22291;52.250;21.228;2023-02-28T07:29:32;39.40;;;23.65;;
36253;SDS011;22291;52.250;21.228;2023-02-28T07:31:58;45.58;;;21.80;;
36253;SDS011;22291;52.250;21.228;2023-02-28T07:34:24;41.73;;;21.55;;
36253;SDS011;22291;52.250;21.228;2023-02-28T07:36:55;34.88;;;19.32;;
36253;SDS011;22291;52.250;21.228;2023-02-28T07:39:21;40.60;;;21.60;;
36253;SDS011;22291;52.250;21.228;2023-02-28T07:41:48;28.35;;;15.93;;
36253;SDS011;22291;52.250;21.228;2023-02-28T07:44:15;28.42;;;14.05;;
36253;SDS011;22291;52.250;21.228;2023-02-28T07:46:42;18.10;;;11.65;;
36253;SDS011;22291;52.250;21.228;2023-02-28T07:49:09;17.07;;;10.58;;
36253;SDS011;22291;52.250;21.228;2023-02-28T07:51:35;12.73;;;8.55;;
36253;SDS011;22291;52.250;21.228;2023-02-28T07:54:01;19.87;;;10.60;;
36253;SDS011;22291;52.250;21.228;2023-02-28T07:56:28;15.75;;;8.88;;
36253;SDS011;22291;52.250;21.228;2023-02-28T07:58:56;13.20;;;8.88;;
36253;SDS011;22291;52.250;21.228;2023-02-28T08:01:22;15.13;;;8.90;;
36253;SDS011;22291;52.250;21.228;2023-02-28T08:03:48;20.68;;;9.25;;
36253;SDS011;22291;52.250;21.228;2023-02-28T08:06:19;14.20;;;8.23;;
36253;SDS011;22291;52.250;21.228;2023-02-28T08:08:48;13.25;;;7.53;;
36253;SDS011;22291;52.250;21.228;2023-02-28T08:11:17;10.03;;;7.58;;
36253;SDS011;22291;52.250;21.228;2023-02-28T08:13:44;11.30;;;8.13;;
36253;SDS011;22291;52.250;21.228;2023-02-28T08:16:13;14.43;;;8.53;;
36253;SDS011;22291;52.250;21.228;2023-02-28T08:18:42;15.58;;;10.45;;
36253;SDS011;22291;52.250;21.228;2023-02-28T08:21:10;14.73;;;8.60;;
36253;SDS011;22291;52.250;21.228;2023-02-28T08:23:37;13.13;;;9.43;;
36253;SDS011;22291;52.250;21.228;2023-02-28T08:26:04;13.95;;;10.40;;
36253;SDS011;22291;52.250;21.228;2023-02-28T08:28:32;13.08;;;8.60;;
36253;SDS011;22291;52.250;21.228;2023-02-28T08:31:00;11.03;;;8.70;;
36253;SDS011;22291;52.250;21.228;2023-02-28T08:33:29;14.98;;;9.50;;
36253;SDS011;22291;52.250;21.228;2023-02-28T08:35:57;13.53;;;9.03;;
36253;SDS011;22291;52.250;21.228;2023-02-28T08:38:24;17.15;;;9.80;;
36253;SDS011;22291;52.250;21.228;2023-02-28T08:40:56;17.07;;;11.55;;
36253;SDS011;22291;52.250;21.228;2023-02-28T08:43:27;16.07;;;9.20;;
36253;SDS011;22291;52.250;21.228;2023-02-28T08:45:55;14.80;;;9.23;;
36253;SDS011;22291;52.250;21.228;2023-02-28T08:48:23;17.15;;;8.53;;
36253;SDS011;22291;52.250;21.228;2023-02-28T08:50:56;16.10;;;9.15;;
36253;SDS011;22291;52.250;21.228;2023-02-28T08:56:04;12.55;;;8.60;;
36253;SDS011;22291;52.250;21.228;2023-02-28T08:58:37;12.78;;;8.28;;
36253;SDS011;22291;52.250;21.228;2023-02-28T09:01:17;11.68;;;8.58;;
36253;SDS011;22291;52.250;21.228;2023-02-28T09:03:47;18.20;;;8.45;;
36253;SDS011;22291;52.250;21.228;2023-02-28T09:06:17;13.60;;;8.10;;
36253;SDS011;22291;52.250;21.228;2023-02-28T09:08:47;13.18;;;7.60;;
36253;SDS011;22291;52.250;21.228;2023-02-28T09:11:15;12.40;;;8.43;;
36253;SDS011;22291;52.250;21.228;2023-02-28T09:13:44;9.98;;;7.92;;
36253;SDS011;22291;52.250;21.228;2023-02-28T09:16:13;11.70;;;8.10;;
36253;SDS011;22291;52.250;21.228;2023-02-28T09:18:43;14.38;;;8.63;;
36253;SDS011;22291;52.250;21.228;2023-02-28T09:21:12;11.53;;;8.53;;
36253;SDS011;22291;52.250;21.228;2023-02-28T09:23:43;11.45;;;7.90;;
36253;SDS011;22291;52.250;21.228;2023-02-28T09:26:18;17.30;;;8.45;;
36253;SDS011;22291;52.250;21.228;2023-02-28T09:28:44;13.03;;;7.47;;
36253;SDS011;22291;52.250;21.228;2023-02-28T09:31:14;15.53;;;8.80;;
36253;SDS011;22291;52.250;21.228;2023-02-28T09:33:47;12.53;;;10.13;;
36253;SDS011;22291;52.250;21.228;2023-02-28T09:36:16;42.90;;;39.78;;
36253;SDS011;22291;52.250;21.228;2023-02-28T09:38:45;82.75;;;77.45;;
36253;SDS011;22291;52.250;21.228;2023-02-28T09:41:14;82.50;;;76.90;;
36253;SDS011;22291;52.250;21.228;2023-02-28T09:43:45;83.20;;;77.80;;
36253;SDS011;22291;52.250;21.228;2023-02-28T09:46:25;82.50;;;77.03;;
36253;SDS011;22291;52.250;21.228;2023-02-28T09:48:56;78.50;;;73.52;;
36253;SDS011;22291;52.250;21.228;2023-02-28T09:54:19;79.67;;;73.72;;
36253;SDS011;22291;52.250;21.228;2023-02-28T09:56:50;58.08;;;54.13;;
36253;SDS011;22291;52.250;21.228;2023-02-28T09:59:25;82.53;;;77.08;;
36253;SDS011;22291;52.250;21.228;2023-02-28T10:02:37;81.87;;;76.42;;
36253;SDS011;22291;52.250;21.228;2023-02-28T10:05:18;86.65;;;81.00;;
36253;SDS011;22291;52.250;21.228;2023-02-28T10:26:47;94.32;;;87.47;;
36253;SDS011;22291;52.250;21.228;2023-02-28T10:29:14;84.10;;;78.60;;
36253;SDS011;22291;52.250;21.228;2023-02-28T10:31:42;83.85;;;78.37;;
36253;SDS011;22291;52.250;21.228;2023-02-28T10:34:11;88.30;;;82.35;;
36253;SDS011;22291;52.250;21.228;2023-02-28T10:36:38;71.10;;;66.40;;
36253;SDS011;22291;52.250;21.228;2023-02-28T10:42:05;82.33;;;76.82;;
36253;SDS011;22291;52.250;21.228;2023-02-28T10:44:48;81.05;;;75.70;;
36253;SDS011;22291;52.250;21.228;2023-02-28T10:47:18;86.57;;;80.32;;
36253;SDS011;22291;52.250;21.228;2023-02-28T10:49:47;83.70;;;77.78;;
36253;SDS011;22291;52.250;21.228;2023-02-28T10:52:31;81.05;;;75.70;;
36253;SDS011;22291;52.250;21.228;2023-02-28T10:55:20;82.00;;;76.20;;
36253;SDS011;22291;52.250;21.228;2023-02-28T10:57:48;84.17;;;78.50;;
36253;SDS011;22291;52.250;21.228;2023-02-28T11:00:17;79.72;;;74.00;;
36253;SDS011;22291;52.250;21.228;2023-02-28T11:02:46;86.30;;;80.03;;
36253;SDS011;22291;52.250;21.228;2023-02-28T11:10:47;44.98;;;42.05;;
36253;SDS011;22291;52.250;21.228;2023-02-28T11:13:17;28.83;;;27.15;;
36253;SDS011;22291;52.250;21.228;2023-02-28T11:15:50;18.75;;;17.95;;
36253;SDS011;22291;52.250;21.228;2023-02-28T11:18:23;59.42;;;55.08;;
36253;SDS011;22291;52.250;21.228;2023-02-28T11:20:52;84.10;;;78.20;;
36253;SDS011;22291;52.250;21.228;2023-02-28T11:23:21;84.87;;;77.92;;
36253;SDS011;22291;52.250;21.228;2023-02-28T11:25:50;85.40;;;78.87;;
36253;SDS011;22291;52.250;21.228;2023-02-28T11:28:33;87.02;;;80.53;;
36253;SDS011;22291;52.250;21.228;2023-02-28T11:31:03;84.10;;;78.20;;
36253;SDS011;22291;52.250;21.228;2023-02-28T11:33:42;86.92;;;80.45;;
36253;SDS011;22291;52.250;21.228;2023-02-28T11:38:53;85.15;;;78.70;;
36253;SDS011;22291;52.250;21.228;2023-02-28T11:44:23;84.10;;;78.17;;
36253;SDS011;22291;52.250;21.228;2023-02-28T11:47:15;42.38;;;17.95;;
36253;SDS011;22291;52.250;21.228;2023-02-28T11:52:38;85.30;;;79.15;;
36253;SDS011;22291;52.250;21.228;2023-02-28T11:55:07;93.15;;;84.70;;
36253;SDS011;22291;52.250;21.228;2023-02-28T12:22:31;87.92;;;81.08;;
36253;SDS011;22291;52.250;21.228;2023-02-28T12:26:59;18.48;;;12.50;;
36253;SDS011;22291;52.250;21.228;2023-02-28T12:29:30;19.82;;;12.50;;
36253;SDS011;22291;52.250;21.228;2023-02-28T12:32:11;18.70;;;12.45;;
36253;SDS011;22291;52.250;21.228;2023-02-28T12:37:23;19.25;;;12.50;;
36253;SDS011;22291;52.250;21.228;2023-02-28T12:40:20;21.48;;;11.63;;
36253;SDS011;22291;52.250;21.228;2023-02-28T12:42:49;22.13;;;11.48;;
36253;SDS011;22291;52.250;21.228;2023-02-28T12:45:21;17.20;;;13.13;;
36253;SDS011;22291;52.250;21.228;2023-02-28T12:48:04;21.52;;;12.93;;
36253;SDS011;22291;52.250;21.228;2023-02-28T12:50:36;23.67;;;13.95;;
36253;SDS011;22291;52.250;21.228;2023-02-28T12:53:09;31.45;;;17.40;;
36253;SDS011;22291;52.250;21.228;2023-02-28T12:58:39;24.98;;;18.32;;
36253;SDS011;22291;52.250;21.228;2023-02-28T13:07:20;89.80;;;83.40;;
36253;SDS011;22291;52.250;21.228;2023-02-28T13:10:04;89.95;;;83.75;;
36253;SDS011;22291;52.250;21.228;2023-02-28T13:12:33;21.93;;;16.23;;
36253;SDS011;22291;52.250;21.228;2023-02-28T13:15:06;89.17;;;82.42;;
36253;SDS011;22291;52.250;21.228;2023-02-28T13:17:58;89.65;;;83.00;;
36253;SDS011;22291;52.250;21.228;2023-02-28T13:20:26;88.87;;;81.97;;
36253;SDS011;22291;52.250;21.228;2023-02-28T13:23:02;89.62;;;82.88;;
36253;SDS011;22291;52.250;21.228;2023-02-28T13:28:09;89.13;;;82.72;;
36253;SDS011;22291;52.250;21.228;2023-02-28T13:33:37;88.00;;;81.90;;
36253;SDS011;22291;52.250;21.228;2023-02-28T13:38:55;90.70;;;84.10;;
36253;SDS011;22291;52.250;21.228;2023-02-28T13:44:04;91.35;;;84.28;;
36253;SDS011;22291;52.250;21.228;2023-02-28T14:09:03;64.85;;;59.70;;
36253;SDS011;22291;52.250;21.228;2023-02-28T14:14:53;92.25;;;85.35;;
36253;SDS011;22291;52.250;21.228;2023-02-28T14:17:05;92.75;;;85.60;;
36253;SDS011;22291;52.250;21.228;2023-02-28T14:19:36;89.90;;;83.12;;
36253;SDS011;22291;52.250;21.228;2023-02-28T14:38:58;88.70;;;82.05;;
36253;SDS011;22291;52.250;21.228;2023-02-28T14:41:35;91.12;;;84.28;;
36253;SDS011;22291;52.250;21.228;2023-02-28T14:46:55;91.20;;;84.50;;
36253;SDS011;22291;52.250;21.228;2023-02-28T14:49:27;52.10;;;47.50;;
36253;SDS011;22291;52.250;21.228;2023-02-28T14:52:14;19.27;;;11.40;;
36253;SDS011;22291;52.250;21.228;2023-02-28T14:55:03;24.50;;;12.23;;
36253;SDS011;22291;52.250;21.228;2023-02-28T14:57:29;21.87;;;12.28;;
36253;SDS011;22291;52.250;21.228;2023-02-28T15:00:06;21.42;;;15.58;;
36253;SDS011;22291;52.250;21.228;2023-02-28T15:02:44;21.62;;;12.33;;
36253;SDS011;22291;52.250;21.228;2023-02-28T15:08:00;66.17;;;61.08;;
36253;SDS011;22291;52.250;21.228;2023-02-28T15:10:35;36.85;;;33.00;;
36253;SDS011;22291;52.250;21.228;2023-02-28T15:13:09;30.52;;;25.35;;
36253;SDS011;22291;52.250;21.228;2023-02-28T15:20:59;22.22;;;15.65;;
36253;SDS011;22291;52.250;21.228;2023-02-28T15:23:48;25.15;;;13.13;;
36253;SDS011;22291;52.250;21.228;2023-02-28T15:26:19;29.55;;;21.93;;
36253;SDS011;22291;52.250;21.228;2023-02-28T15:28:51;23.20;;;14.03;;
36253;SDS011;22291;52.250;21.228;2023-02-28T15:31:32;21.87;;;12.40;;
36253;SDS011;22291;52.250;21.228;2023-02-28T15:34:05;19.62;;;11.53;;
36253;SDS011;22291;52.250;21.228;2023-02-28T15:36:48;23.02;;;12.35;;
36253;SDS011;22291;52.250;21.228;2023-02-28T15:39:21;22.48;;;12.15;;
36253;SDS011;22291;52.250;21.228;2023-02-28T15:44:50;25.30;;;12.37;;
36253;SDS011;22291;52.250;21.228;2023-02-28T15:52:34;21.77;;;12.47;;
36253;SDS011;22291;52.250;21.228;2023-02-28T15:55:21;23.42;;;12.73;;
36253;SDS011;22291;52.250;21.228;2023-02-28T15:57:55;23.38;;;12.75;;
36253;SDS011;22291;52.250;21.228;2023-02-28T16:00:27;23.40;;;13.25;;
36253;SDS011;22291;52.250;21.228;2023-02-28T16:03:00;18.90;;;12.15;;
36253;SDS011;22291;52.250;21.228;2023-02-28T16:05:29;25.68;;;13.38;;
36253;SDS011;22291;52.250;21.228;2023-02-28T16:08:06;27.02;;;14.40;;
36253;SDS011;22291;52.250;21.228;2023-02-28T16:13:11;21.95;;;12.15;;
36253;SDS011;22291;52.250;21.228;2023-02-28T16:15:41;24.82;;;13.53;;
36253;SDS011;22291;52.250;21.228;2023-02-28T16:18:11;23.30;;;12.73;;
36253;SDS011;22291;52.250;21.228;2023-02-28T16:20:42;22.40;;;13.53;;
36253;SDS011;22291;52.250;21.228;2023-02-28T16:23:10;27.40;;;15.55;;
36253;SDS011;22291;52.250;21.228;2023-02-28T16:25:40;32.40;;;17.60;;
36253;SDS011;22291;52.250;21.228;2023-02-28T16:28:31;34.98;;;19.45;;
36253;SDS011;22291;52.250;21.228;2023-02-28T16:30:59;31.73;;;18.52;;
36253;SDS011;22291;52.250;21.228;2023-02-28T16:33:32;32.88;;;19.57;;
36253;SDS011;22291;52.250;21.228;2023-02-28T16:36:00;30.32;;;16.45;;
36253;SDS011;22291;52.250;21.228;2023-02-28T16:38:32;26.17;;;14.80;;
36253;SDS011;22291;52.250;21.228;2023-02-28T16:41:00;22.17;;;12.98;;
36253;SDS011;22291;52.250;21.228;2023-02-28T16:43:27;28.40;;;14.43;;
36253;SDS011;22291;52.250;21.228;2023-02-28T16:45:58;23.60;;;13.98;;
36253;SDS011;22291;52.250;21.228;2023-02-28T16:48:30;25.62;;;14.15;;
36253;SDS011;22291;52.250;21.228;2023-02-28T16:50:56;26.42;;;13.65;;
36253;SDS011;22291;52.250;21.228;2023-02-28T16:53:22;26.77;;;14.45;;
36253;SDS011;22291;52.250;21.228;2023-02-28T16:55:49;32.75;;;17.35;;
36253;SDS011;22291;52.250;21.228;2023-02-28T16:58:23;47.65;;;20.88;;
36253;SDS011;22291;52.250;21.228;2023-02-28T17:00:51;46.40;;;22.22;;
36253;SDS011;22291;52.250;21.228;2023-02-28T17:03:23;45.05;;;20.02;;
36253;SDS011;22291;52.250;21.228;2023-02-28T17:05:54;40.15;;;19.57;;
36253;SDS011;22291;52.250;21.228;2023-02-28T17:08:23;46.73;;;22.93;;
36253;SDS011;22291;52.250;21.228;2023-02-28T17:10:52;48.05;;;24.77;;
36253;SDS011;22291;52.250;21.228;2023-02-28T17:13:20;47.85;;;23.90;;
36253;SDS011;22291;52.250;21.228;2023-02-28T17:15:49;45.40;;;24.23;;
36253;SDS011;22291;52.250;21.228;2023-02-28T17:18:18;76.92;;;35.35;;
36253;SDS011;22291;52.250;21.228;2023-02-28T17:20:49;56.05;;;28.92;;
36253;SDS011;22291;52.250;21.228;2023-02-28T17:23:15;79.17;;;36.13;;
36253;SDS011;22291;52.250;21.228;2023-02-28T17:25:43;84.65;;;34.45;;
36253;SDS011;22291;52.250;21.228;2023-02-28T17:28:14;81.75;;;34.27;;
36253;SDS011;22291;52.250;21.228;2023-02-28T17:30:40;72.37;;;32.48;;
36253;SDS011;22291;52.250;21.228;2023-02-28T17:33:08;73.20;;;31.80;;
36253;SDS011;22291;52.250;21.228;2023-02-28T17:35:34;71.75;;;30.02;;
36253;SDS011;22291;52.250;21.228;2023-02-28T17:38:00;57.03;;;26.60;;
36253;SDS011;22291;52.250;21.228;2023-02-28T17:40:27;55.05;;;26.00;;
36253;SDS011;22291;52.250;21.228;2023-02-28T17:42:59;50.95;;;24.72;;
36253;SDS011;22291;52.250;21.228;2023-02-28T17:45:25;47.93;;;24.67;;
36253;SDS011;22291;52.250;21.228;2023-02-28T17:48:02;49.45;;;23.15;;
36253;SDS011;22291;52.250;21.228;2023-02-28T17:50:35;46.08;;;21.57;;
36253;SDS011;22291;52.250;21.228;2023-02-28T17:53:04;45.25;;;21.77;;